Ames, Oklahoma
Current Conditions -  °F | °C
As of 10:55 AM on Tuesday 21 Oct 2014 (Local Time) from KEND Reporting Station
Scattered Clouds Scattered Clouds  
Wind Chill: 64°   Ceiling: Unl
Heat Index: 64°   Visibility: 10mi
Dew Point: 59°   Wind: 6mph
Humidity: 83%   Direction: 140°SE
Pressure: 30.09"   Gusts: NA
Location:  36.25°N, 98.19°W
Report Text: KEND 211555Z 14005KT 10SM FEW020 SCT060 18/15 A3009 RMK AO2A SLP185
Loading
Personal Weather Stations






























Interactive Weather Map New forecast layout! Learn more

10-Day Weather Forecast

Advertisements
Track Severe Weather on mobile